PWSweather.com
Personal Weather Stations
Station Observations
VPOKROGLO
Kal Nad Kanalom, PrimorskaSI

Kal Nad KanalomPrimorskaSI

Lat: 46.072, Lon: 13.734

Elevation: 2526

Station Type: WS-2355

http://www.okroglovreme.com

Latest ConditionsUpdated 7:00:00 AM GMT+01:01 Sunday, May 1, 2016
Currently Today's Max Today's Min Today's Average
Temperature 42.6°F5.9°C 45.5°F7.5°C 42.6°F5.9°C 43.9°F6.6°C
Dew Point 37.2°F2.9°C 38.0°F3.3°C 36.5°F2.5°C 37.0°F2.8°C
Winds 0.9 mph N1.4 kmh N 4.9 mph S7.9 kmh S - 3.1 mph 5.0 kmh
Wind Gusts 4.0 mph6.4 kmh 21.7 mph34.9 kmh - -
Humidity 81% 81% 75% 77%
Pressure 29.85 in1010.8 mb 29.89 in1012.2 mb 29.83 in1010.2 mb -
Precipitation - 0.08 in2.0 mm - -
Hour Temp Dew Point Humidity Winds Wind Gusts Pressure Precip Precip Rate Daily Precip Total
07:00 AM 42.6°F5.9°C 37.2°F2.9°C 81% 0.9 mph N1.4 kmh N 4.0 mph6.4 kmh 29.85 in1010.8 mb 0.06 in1.5 mm 0.00 in0.0 mm 0.08 in2.0 mm
06:45 AM 42.8°F6.0°C 37.4°F3.0°C 81% 2.0 mph N3.2 kmh N 9.8 mph15.8 kmh 29.85 in1010.8 mb 0.06 in1.5 mm 0.16 in4.1 mm 0.06 in1.5 mm
06:30 AM 42.8°F6.0°C 37.4°F3.0°C 81% 1.1 mph E1.8 kmh E 5.8 mph9.3 kmh 29.85 in1010.8 mb 0.02 in0.5 mm 0.00 in0.0 mm 0.02 in0.5 mm
06:15 AM 42.6°F5.9°C 36.9°F2.7°C 80% 1.0 mph NNW1.6 kmh NNW 4.0 mph6.4 kmh 29.85 in1010.8 mb 0.02 in0.5 mm 0.00 in0.0 mm 0.02 in0.5 mm
06:00 AM 42.8°F6.0°C 37.1°F2.8°C 80% 1.1 mph SSE1.8 kmh SSE 3.4 mph5.5 kmh 29.86 in1011.2 mb 0.02 in0.5 mm 0.03 in0.8 mm 0.02 in0.5 mm
05:45 AM 43.0°F6.1°C 36.9°F2.7°C 79% 1.4 mph SE2.3 kmh SE 6.9 mph11.1 kmh 29.85 in1010.8 mb 0.00 in0.0 mm 0.00 in0.0 mm 0.00 in0.0 mm
05:30 AM 43.2°F6.2°C 36.8°F2.7°C 78% 2.2 mph NNE3.5 kmh NNE 6.5 mph10.5 kmh 29.85 in1010.8 mb 0.00 in0.0 mm 0.00 in0.0 mm 0.00 in0.0 mm
05:19 AM 43.5°F6.4°C 36.5°F2.5°C 76% 0.9 mph N1.4 kmh N 1.8 mph2.9 kmh 29.84 in1010.5 mb 0.00 in0.0 mm 0.00 in0.0 mm 0.00 in0.0 mm
05:15 AM 43.5°F6.4°C 36.5°F2.5°C 76% 3.8 mph NNE6.1 kmh NNE 9.8 mph15.8 kmh 29.84 in1010.5 mb 0.00 in0.0 mm 0.00 in0.0 mm 0.00 in0.0 mm
05:00 AM 43.9°F6.6°C 36.5°F2.5°C 75% 3.3 mph N5.3 kmh N 9.2 mph14.8 kmh 29.85 in1010.8 mb 0.00 in0.0 mm 0.00 in0.0 mm 0.00 in0.0 mm
04:45 AM 43.9°F6.6°C 36.5°F2.5°C 75% 3.4 mph WSW5.5 kmh WSW 9.6 mph15.4 kmh 29.84 in1010.5 mb 0.00 in0.0 mm 0.00 in0.0 mm 0.00 in0.0 mm
04:30 AM 43.9°F6.6°C 36.5°F2.5°C 75% 3.7 mph NE6.0 kmh NE 16.6 mph26.7 kmh 29.84 in1010.5 mb 0.00 in0.0 mm 0.00 in0.0 mm 0.00 in0.0 mm
04:15 AM 43.9°F6.6°C 36.5°F2.5°C 75% 3.5 mph SE5.6 kmh SE 10.3 mph16.6 kmh 29.84 in1010.5 mb 0.00 in0.0 mm 0.00 in0.0 mm 0.00 in0.0 mm
04:00 AM 43.9°F6.6°C 36.5°F2.5°C 75% 3.6 mph SSW5.8 kmh SSW 11.6 mph18.7 kmh 29.83 in1010.2 mb 0.00 in0.0 mm 0.00 in0.0 mm 0.00 in0.0 mm
03:45 AM 43.9°F6.6°C 36.8°F2.7°C 76% 4.1 mph SSW6.6 kmh SSW 8.9 mph14.3 kmh 29.83 in1010.2 mb 0.00 in0.0 mm 0.00 in0.0 mm 0.00 in0.0 mm
03:30 AM 43.9°F6.6°C 36.8°F2.7°C 76% 4.6 mph SW7.4 kmh SW 9.2 mph14.8 kmh 29.84 in1010.5 mb 0.00 in0.0 mm 0.00 in0.0 mm 0.00 in0.0 mm
03:15 AM 44.1°F6.7°C 37.0°F2.8°C 76% 4.2 mph SSE6.8 kmh SSE 11.2 mph18.0 kmh 29.84 in1010.5 mb 0.00 in0.0 mm 0.00 in0.0 mm 0.00 in0.0 mm
03:00 AM 44.2°F6.8°C 37.2°F2.9°C 76% 4.9 mph S7.9 kmh S 21.7 mph34.9 kmh 29.84 in1010.5 mb 0.00 in0.0 mm 0.00 in0.0 mm 0.00 in0.0 mm
02:45 AM 44.4°F6.9°C 37.3°F2.9°C 76% 3.4 mph S5.5 kmh S 11.4 mph18.3 kmh 29.86 in1011.2 mb 0.00 in0.0 mm 0.00 in0.0 mm 0.00 in0.0 mm
02:30 AM 44.4°F6.9°C 37.0°F2.8°C 75% 3.9 mph S6.3 kmh S 11.0 mph17.7 kmh 29.86 in1011.2 mb 0.00 in0.0 mm 0.00 in0.0 mm 0.00 in0.0 mm
02:15 AM 44.8°F7.1°C 37.3°F2.9°C 75% 4.0 mph SSE6.4 kmh SSE 13.2 mph21.2 kmh 29.86 in1011.2 mb 0.00 in0.0 mm 0.00 in0.0 mm 0.00 in0.0 mm
02:00 AM 44.8°F7.1°C 37.3°F2.9°C 75% 3.2 mph WSW5.1 kmh WSW 12.1 mph19.5 kmh 29.86 in1011.2 mb 0.00 in0.0 mm 0.00 in0.0 mm 0.00 in0.0 mm
01:45 AM 45.0°F7.2°C 37.5°F3.1°C 75% 4.1 mph SSE6.6 kmh SSE 10.5 mph16.9 kmh 29.87 in1011.5 mb 0.00 in0.0 mm 0.00 in0.0 mm 0.00 in0.0 mm
01:30 AM 45.1°F7.3°C 37.7°F3.2°C 75% 4.1 mph S6.6 kmh S 15.4 mph24.8 kmh 29.88 in1011.9 mb 0.00 in0.0 mm 0.00 in0.0 mm 0.00 in0.0 mm
01:15 AM 45.3°F7.4°C 37.9°F3.3°C 75% 3.9 mph SSW6.3 kmh SSW 11.9 mph19.2 kmh 29.88 in1011.9 mb 0.00 in0.0 mm 0.00 in0.0 mm 0.00 in0.0 mm
01:00 AM 45.5°F7.5°C 38.0°F3.3°C 75% 4.4 mph S7.1 kmh S 15.2 mph24.5 kmh 29.89 in1012.2 mb 0.00 in0.0 mm 0.00 in0.0 mm 0.00 in0.0 mm
12:45 AM 45.7°F7.6°C 37.9°F3.3°C 74% 3.4 mph S5.5 kmh S 8.9 mph14.3 kmh 29.89 in1012.2 mb 0.00 in0.0 mm 0.00 in0.0 mm 0.00 in0.0 mm
12:30 AM 45.7°F7.6°C 37.9°F3.3°C 74% 4.1 mph SSE6.6 kmh SSE 9.2 mph14.8 kmh 29.90 in1012.5 mb 0.00 in0.0 mm 0.00 in0.0 mm 0.00 in0.0 mm
12:15 AM 46.0°F7.8°C 38.2°F3.4°C 74% 3.8 mph S6.1 kmh S 10.1 mph16.3 kmh 29.90 in1012.5 mb 0.00 in0.0 mm 0.00 in0.0 mm 0.00 in0.0 mm
12:00 AM 46.0°F7.8°C 38.2°F3.4°C 74% 3.2 mph SW5.1 kmh SW 8.1 mph13.0 kmh 29.90 in1012.5 mb 0.00 in0.0 mm 0.00 in0.0 mm 0.00 in0.0 mm